Latest Coastal Weather Observations for Charles Point

IDD60701

Issued at 7:41 am CST Saturday 29 August 2015 (issued every 10 minutes, with the page automatically refreshed every 10 minutes)

About coastal observations | Map of coastal stations | Coastal observations for NT | Marine services | Other Formats
Station Details ID: 014031 Name: CHARLES POINT Lat: -12.39 Lon: 130.63 Height: 14.0 m
Data from the previous 72 hours. | See also: Recent months for locations in Northern Territory
Date/Time
CST
Temp

°C
Wind Pressure Rain
since 9am
mm
Weather Cloud Vis
km
Sea
Height
m
Swell
Dir
 
Speed
knots
Gust
knots
hPa Trend Height
m
Period
s
Dir
29/07:30am 22.5 SSW 4 5 1016.2 - 0.0 - - - - - - -
29/07:00am 22.1 S 2 3 1015.8 - 0.0 - - - - - - -
29/06:30am 22.6 S 3 3 1015.3 - 0.0 - - - - - - -
29/06:00am 23.2 SE 3 4 1014.9 - 0.0 - - - - - - -
29/05:30am 23.3 SE 3 4 1014.7 - 0.0 - - - - - - -
29/05:00am 23.4 SE 3 4 1014.5 - 0.0 - - - - - - -
29/04:30am 23.3 SSE 3 4 1014.4 - 0.0 - - - - - - -
29/04:00am 23.1 SSE 4 6 1014.4 - 0.0 - - - - - - -
29/03:30am 23.0 SSE 3 5 1014.4 - 0.0 - - - - - - -
29/03:00am 23.2 S 4 6 1014.6 - 0.0 - - - - - - -
29/02:30am 23.3 S 5 6 1014.6 - 0.0 - - - - - - -
29/02:00am 23.1 S 5 6 1014.8 - 0.0 - - - - - - -
29/01:30am 23.2 S 4 7 1015.0 - 0.0 - - - - - - -
29/01:00am 23.4 S 5 6 1015.2 - 0.0 - - - - - - -
29/12:30am 23.9 S 5 6 1015.5 - 0.0 - - - - - - -
29/12:00am 24.0 S 4 6 1015.4 - 0.0 - - - - - - -
 
Date/Time
CST
Temp

°C
Wind Pressure Rain
since 9am
mm
Weather Cloud Vis
km
Sea
Height
m
Swell
Dir
 
Speed
knots
Gust
knots
hPa Trend Height
m
Period
s
Dir
28/11:30pm 23.9 S 4 5 1015.4 - 0.0 - - - - - - -
28/11:00pm 23.7 S 3 4 1015.2 - 0.0 - - - - - - -
28/10:30pm 24.1 S 3 4 1015.2 - 0.0 - - - - - - -
28/10:00pm 24.2 S 3 4 1015.0 - 0.0 - - - - - - -
28/09:30pm 24.6 S 4 6 1014.7 - 0.0 - - - - - - -
28/09:00pm 24.6 S 4 5 1014.5 - 0.0 - - - - - - -
28/08:30pm 24.8 S 3 3 1014.2 - 0.0 - - - - - - -
28/08:00pm 25.2 SSW 2 3 1013.9 - 0.0 - - - - - - -
28/07:30pm 25.6 CALM 0 0 1013.5 - 0.0 - - - - - - -
28/07:00pm 26.9 CALM 0 1 1013.0 - 0.0 - - - - - - -
28/06:30pm 27.9 ENE 3 5 1012.7 - 0.0 - - - - - - -
28/06:00pm 28.1 NE 5 7 1012.3 - 0.0 - - - - - - -
28/05:30pm 28.3 NE 6 7 1012.1 - 0.0 - - - - - - -
28/05:00pm 28.8 NNE 5 9 1012.1 - 0.0 - - - - - - -
28/04:30pm 29.0 NNE 7 11 1012.2 - 0.0 - - - - - - -
28/04:00pm 28.8 NNE 7 11 1012.4 - 0.0 - - - - - - -
28/03:30pm 27.9 NNE 10 14 1012.4 - 0.0 - - - - - - -
28/03:00pm 28.0 NNE 12 16 1012.7 - 0.0 - - - - - - -
28/02:30pm 28.0 N 12 15 1013.2 - 0.0 - - - - - - -
28/02:00pm 28.2 NNE 10 14 1013.5 - 0.0 - - - - - - -
28/01:30pm 27.6 N 12 14 1013.9 - 0.0 - - - - - - -
28/01:00pm 28.0 N 8 9 1014.5 - 0.0 - - - - - - -
28/12:30pm 28.1 N 7 8 1015.1 - 0.0 - - - - - - -
28/12:00pm 28.5 NNE 4 7 1015.8 - 0.0 - - - - - - -
28/11:30am 28.4 NE 5 7 1016.2 - 0.0 - - - - - - -
28/11:00am 28.0 NE 5 7 1016.6 - 0.0 - - - - - - -
28/10:30am 28.1 ENE 5 8 1017.0 - 0.0 - - - - - - -
28/10:00am 27.6 E 4 8 1017.1 - 0.0 - - - - - - -
28/09:30am 27.2 E 5 8 1017.0 - 0.0 - - - - - - -
28/09:00am 27.3 E 5 7 1016.8 - 0.0 - - - - - - -
28/08:30am 26.8 E 4 7 1016.6 - 0.0 - - - - - - -
28/08:00am 26.3 SE 2 4 1016.3 - 0.0 - - - - - - -
28/07:30am 24.9 ESE 3 5 1015.9 - 0.0 - - - - - - -
28/07:00am 24.9 E 4 8 1015.6 - 0.0 - - - - - - -
28/06:30am 25.0 ESE 4 9 1015.2 - 0.0 - - - - - - -
28/06:00am 24.4 SE 3 6 1014.7 - 0.0 - - - - - - -
28/05:30am 24.4 SE 3 4 1014.6 - 0.0 - - - - - - -
28/05:00am 25.5 ESE 4 7 1014.5 - 0.0 - - - - - - -
28/04:30am 25.8 ENE 3 7 1014.4 - 0.0 - - - - - - -
28/04:00am 25.7 ENE 5 8 1014.4 - 0.0 - - - - - - -
28/03:30am 25.7 NE 5 7 1014.4 - 0.0 - - - - - - -
28/03:00am 25.7 NNE 5 8 1014.5 - 0.0 - - - - - - -
28/02:30am 24.5 W 2 4 1014.7 - 0.0 - - - - - - -
28/02:00am 24.5 WSW 1 3 1014.9 - 0.0 - - - - - - -
28/01:30am 25.1 WSW 2 3 1015.1 - 0.0 - - - - - - -
28/01:00am 25.3 WNW 2 5 1015.2 - 0.0 - - - - - - -
28/12:30am 25.5 WNW 5 7 1015.4 - 0.0 - - - - - - -
28/12:00am 25.5 W 4 7 1015.3 - 0.0 - - - - - - -
 
Date/Time
CST
Temp

°C
Wind Pressure Rain
since 9am
mm
Weather Cloud Vis
km
Sea
Height
m
Swell
Dir
 
Speed
knots
Gust
knots
hPa Trend Height
m
Period
s
Dir
27/11:30pm 25.6 WNW 7 9 1015.4 - 0.0 - - - - - - -
27/11:00pm 25.7 WNW 7 10 1015.5 - 0.0 - - - - - - -
27/10:30pm 25.9 WNW 9 11 1015.4 - 0.0 - - - - - - -
27/10:00pm 26.3 WNW 10 13 1015.3 - 0.0 - - - - - - -
27/09:30pm 26.5 WNW 9 12 1015.0 - 0.0 - - - - - - -
27/09:00pm 26.5 WNW 10 13 1014.7 - 0.0 - - - - - - -
27/08:30pm 26.8 NW 11 14 1014.5 - 0.0 - - - - - - -
27/08:00pm 27.6 NE 4 9 1014.1 - 0.0 - - - - - - -
27/07:30pm 27.4 NE 6 8 1013.5 - 0.0 - - - - - - -
27/07:00pm 27.4 NE 7 11 1013.2 - 0.0 - - - - - - -
27/06:30pm 27.4 NE 9 12 1012.8 - 0.0 - - - - - - -
27/06:00pm 27.8 NNE 9 12 1012.5 - 0.0 - - - - - - -
27/05:30pm 28.2 NE 10 12 1012.3 - 0.0 - - - - - - -
27/05:00pm 28.2 NNE 6 9 1012.2 - 0.0 - - - - - - -
27/04:30pm 28.2 N 8 10 1012.3 - 0.0 - - - - - - -
27/04:00pm 27.8 N 7 8 1012.5 - 0.0 - - - - - - -
27/03:30pm 27.7 N 5 7 1012.8 - 0.0 - - - - - - -
27/03:00pm 28.0 N 5 7 1013.1 - 0.0 - - - - - - -
27/02:30pm 28.0 N 6 8 1013.4 - 0.0 - - - - - - -
27/02:00pm 28.2 N 5 6 1013.8 - 0.0 - - - - - - -
27/01:30pm 27.7 N 4 6 1014.3 - 0.0 - - - - - - -
27/01:00pm 27.9 N 5 7 1014.9 - 0.0 - - - - - - -
27/12:30pm - NNE 4 6 1015.2 - 0.0 - - - - - - -
27/12:00pm - NE 3 5 1015.7 - 0.0 - - - - - - -
27/11:30am - NNE 4 5 1016.3 - 0.0 - - - - - - -
27/11:00am - ENE 4 5 1016.7 - 0.0 - - - - - - -
27/10:30am - NE 4 6 1016.8 - 0.0 - - - - - - -
27/10:00am - E 3 5 1016.7 - 0.0 - - - - - - -
27/09:30am - E 4 8 1016.7 - 0.0 - - - - - - -
27/09:00am - E 4 9 1016.4 - 0.2 - - - - - - -
27/08:30am - SE 3 5 1016.1 - 0.2 - - - - - - -
27/08:00am - SSE 3 4 1015.8 - 0.2 - - - - - - -
27/07:30am - SSE 2 3 1015.2 - 0.2 - - - - - - -
27/07:00am - S 2 3 1014.8 - 0.2 - - - - - - -
27/06:30am - CALM 0 2 1014.5 - 0.2 - - - - - - -
27/06:00am - CALM 0 0 1014.3 - 0.2 - - - - - - -
27/05:30am - CALM 0 0 1014.0 - 0.2 - - - - - - -
27/05:00am - CALM 0 1 1013.7 - 0.2 - - - - - - -
27/04:30am - CALM 0 1 1013.6 - 0.2 - - - - - - -
27/04:00am - N 1 3 1013.6 - 0.2 - - - - - - -
27/03:30am - N 5 7 1013.6 - 0.2 - - - - - - -
27/03:00am - NNW 4 7 1013.6 - 0.2 - - - - - - -
27/02:30am - NNW 5 7 1013.8 - 0.2 - - - - - - -
27/02:00am - CALM 0 0 1014.0 - 0.2 - - - - - - -
27/01:30am - CALM 0 0 1014.3 - 0.2 - - - - - - -
27/01:00am - WNW 1 2 1014.5 - 0.2 - - - - - - -
27/12:30am - NW 1 2 1014.6 - 0.2 - - - - - - -
27/12:00am - CALM 0 3 1015.0 - 0.2 - - - - - - -
 
Date/Time
CST
Temp

°C
Wind Pressure Rain
since 9am
mm
Weather Cloud Vis
km
Sea
Height
m
Swell
Dir
 
Speed
knots
Gust
knots
hPa Trend Height
m
Period
s
Dir
26/11:30pm - CALM 0 0 1014.9 - 0.2 - - - - - - -
26/11:00pm - NNE 1 3 1014.8 - 0.2 - - - - - - -
26/10:30pm - NNE 5 7 1014.5 - 0.2 - - - - - - -
26/10:00pm - NE 4 6 1014.4 - 0.2 - - - - - - -
26/09:30pm - NE 9 12 1014.0 - 0.2 - - - - - - -
26/09:00pm - NE 8 11 1013.8 - 0.2 - - - - - - -
26/08:30pm - NE 6 10 1013.7 - 0.2 - - - - - - -
26/08:00pm - NE 7 10 1013.5 - 0.2 - - - - - - -
26/07:30pm - ENE 10 14 1013.1 - 0.2 - - - - - - -
26/07:00pm - NE 10 15 1012.6 - 0.2 - - - - - - -
26/06:30pm - NE 9 13 1012.5 - 0.2 - - - - - - -
26/06:00pm - NE 10 14 1012.1 - 0.2 - - - - - - -
26/05:30pm - NE 13 17 1012.0 - 0.2 - - - - - - -
26/05:00pm - NE 11 15 1011.9 - 0.2 - - - - - - -
26/04:30pm - NE 11 14 1012.1 - 0.2 - - - - - - -
26/04:00pm - NE 11 14 1012.2 - 0.2 - - - - - - -
26/03:30pm - NE 11 15 1012.5 - 0.2 - - - - - - -
26/03:00pm - NE 13 17 1012.8 - 0.2 - - - - - - -
26/02:30pm - NNE 8 13 1013.5 - 0.2 - - - - - - -
26/02:00pm - NNE 7 11 1014.1 - 0.2 - - - - - - -
26/01:30pm - NNE 5 8 1014.6 - 0.2 - - - - - - -
26/01:00pm - N 5 7 1015.0 - 0.2 - - - - - - -
26/12:30pm - NNE 4 6 1015.5 - 0.2 - - - - - - -
26/12:00pm - NE 4 6 1016.1 - 0.2 - - - - - - -
26/11:30am - ENE 4 7 1016.4 - 0.2 - - - - - - -
26/11:00am - ENE 6 8 1016.8 - 0.2 - - - - - - -
26/10:30am - NE 7 9 1017.0 - 0.2 - - - - - - -
26/10:00am - ENE 5 8 1017.0 - 0.0 - - - - - - -
26/09:30am - SSE 3 5 1017.1 - 0.0 - - - - - - -
26/09:00am - SE 3 5 1016.9 - 0.0 - - - - - - -
26/08:30am - SE 4 6 1016.5 - 0.0 - - - - - - -
26/08:00am - SE 4 6 1016.3 - 0.0 - - - - - - -

Other Formats:

Comma delimited format used in spreadsheet applications
http://www.bom.gov.au/fwo/IDD60701/IDD60701.99510.axf

JavaScript Object Notation format (JSON) in row-major order
http://www.bom.gov.au/fwo/IDD60701/IDD60701.99510.json